createdAt,value
2022-09-14T00:01:53.814Z,6.55
2022-09-14T00:11:57.539Z,5.18
2022-09-14T00:22:03.295Z,8.00
2022-09-14T00:32:05.873Z,12.52
2022-09-14T00:42:09.020Z,9.80
2022-09-14T00:52:23.574Z,16.55
2022-09-14T01:02:29.380Z,9.90
2022-09-14T01:12:53.477Z,12.52
2022-09-14T01:23:06.134Z,18.67
2022-09-14T01:33:22.316Z,20.65
2022-09-14T01:43:32.668Z,17.40
2022-09-14T01:53:51.896Z,13.73
2022-09-14T02:04:03.046Z,17.77
2022-09-14T02:14:05.821Z,14.45
2022-09-14T02:24:07.778Z,10.38
2022-09-14T02:34:22.373Z,14.30
2022-09-14T02:45:00.573Z,12.60
2022-09-14T02:55:15.033Z,15.57
2022-09-14T03:05:16.634Z,12.88
2022-09-14T03:15:19.202Z,11.63
2022-09-14T03:25:21.821Z,17.50
2022-09-14T03:35:24.166Z,18.25
2022-09-14T03:45:26.184Z,18.05
2022-09-14T03:55:28.415Z,17.13
2022-09-14T04:05:30.678Z,14.90
2022-09-14T04:15:32.389Z,17.60
2022-09-14T04:25:34.386Z,13.85
2022-09-14T04:35:36.321Z,14.88
2022-09-14T04:45:39.656Z,10.68
2022-09-14T04:55:47.061Z,8.30
2022-09-14T05:05:54.464Z,11.73
2022-09-14T05:15:58.285Z,9.60
2022-09-14T05:26:00.642Z,7.95
2022-09-14T05:36:13.823Z,12.43
2022-09-14T05:46:25.807Z,6.80
2022-09-14T05:56:38.187Z,8.25
2022-09-14T06:06:40.895Z,9.27
2022-09-14T06:16:44.147Z,7.60
2022-09-14T06:26:47.410Z,9.48
2022-09-14T06:36:50.155Z,10.35
2022-09-14T06:47:04.603Z,10.43
2022-09-14T06:57:09.862Z,12.93
2022-09-14T07:07:14.953Z,12.88
2022-09-14T07:17:18.848Z,10.55
2022-09-14T07:27:20.871Z,13.70
2022-09-14T07:37:22.899Z,9.27
2022-09-14T07:47:24.870Z,6.90
2022-09-14T07:57:45.427Z,10.10
2022-09-14T08:07:50.620Z,12.68
2022-09-14T08:17:55.278Z,12.70
2022-09-14T08:27:57.464Z,15.32
2022-09-14T08:37:59.065Z,8.20
2022-09-14T08:48:01.384Z,13.77
2022-09-14T08:58:28.524Z,10.82
2022-09-14T09:08:43.940Z,15.77
2022-09-14T09:19:07.387Z,15.23
2022-09-14T09:29:15.187Z,19.35
2022-09-14T09:39:38.469Z,20.88
2022-09-14T09:49:42.322Z,18.80
2022-09-14T09:59:49.007Z,25.17
2022-09-14T10:10:08.467Z,27.63
2022-09-14T10:20:24.878Z,20.38
2022-09-14T10:30:29.423Z,16.58
2022-09-14T10:40:43.842Z,17.60
2022-09-14T10:51:04.107Z,15.00
2022-09-14T11:01:06.059Z,19.33
2022-09-14T11:11:33.919Z,17.00
2022-09-14T11:21:48.008Z,16.73
2022-09-14T11:32:19.816Z,16.42
2022-09-14T11:42:33.985Z,17.83
2022-09-14T11:52:37.162Z,14.07
2022-09-14T12:02:40.317Z,12.40
2022-09-14T12:12:44.451Z,16.67
2022-09-14T12:22:49.983Z,21.15
2022-09-14T12:32:54.323Z,17.63
2022-09-14T12:42:56.967Z,16.30
2022-09-14T12:53:08.881Z,16.02
2022-09-14T13:03:30.804Z,15.77
2022-09-14T13:13:36.661Z,15.77
2022-09-14T13:23:44.724Z,15.70
2022-09-14T13:33:55.489Z,25.85
2022-09-14T13:43:59.985Z,14.98
2022-09-14T13:54:26.712Z,11.15
2022-09-14T14:04:41.184Z,13.43
2022-09-14T14:14:43.258Z,9.93
2022-09-14T14:25:11.928Z,14.45
2022-09-14T14:35:22.070Z,14.13
2022-09-14T14:45:32.206Z,13.18
2022-09-14T14:55:39.611Z,12.82
2022-09-14T15:05:50.968Z,7.40
2022-09-14T15:15:55.579Z,4.55
2022-09-14T15:25:59.740Z,3.58
2022-09-14T15:36:02.031Z,4.22
2022-09-14T15:46:08.344Z,6.22
2022-09-14T15:56:23.865Z,6.23
2022-09-14T16:06:27.545Z,16.40
2022-09-14T16:16:30.922Z,5.22
2022-09-14T16:26:37.171Z,4.57
2022-09-14T16:36:44.662Z,3.13
2022-09-14T16:46:48.725Z,2.42
2022-09-14T16:56:50.944Z,2.17
2022-09-14T17:06:58.328Z,5.13
2022-09-14T17:17:01.926Z,2.08
2022-09-14T17:27:03.906Z,5.30
2022-09-14T17:37:06.366Z,4.80
2022-09-14T17:47:09.763Z,5.80
2022-09-14T17:57:12.641Z,4.35
2022-09-14T18:07:14.987Z,3.72
2022-09-14T18:17:19.403Z,3.50
2022-09-14T18:27:22.139Z,4.55
2022-09-14T18:37:27.945Z,5.75
2022-09-14T18:47:29.983Z,4.40
2022-09-14T18:57:32.287Z,2.88
2022-09-14T19:07:43.818Z,6.50
2022-09-14T19:17:46.548Z,5.65
2022-09-14T19:27:49.344Z,6.20
